Time;durP1;ratioP1;P1;durP2;ratioP2;P2;SDS_P1;SDS_P2;PMS_P1;PMS_P2;Temp;Humidity;BMP_temperature;BMP_pressure;BME280_temperature;BME280_humidity;BME280_pressure;Samples;Min_cycle;Max_cycle;Signal;HPM_P1;HPM_P2
2022/05/31 00:02:14;;;;;;;1.63;1.20;;;;;;;12.99;50.56;96852.75;4869078;28;20184;-78
2022/05/31 00:04:40;;;;;;;2.17;1.05;;;;;;;13.04;50.41;96845.69;4866913;28;20144;-78
2022/05/31 00:07:07;;;;;;;2.05;0.95;;;;;;;13.03;50.18;96846.72;4896242;28;20298;-78
2022/05/31 00:09:33;;;;;;;1.80;1.10;;;;;;;13.03;50.63;96851.16;4873692;28;20356;-78
2022/05/31 00:11:58;;;;;;;2.13;1.08;;;;;;;12.96;50.84;96848.84;4893536;28;20199;-78
2022/05/31 00:14:24;;;;;;;1.48;1.23;;;;;;;12.90;50.75;96844.66;4889591;28;20289;-77
2022/05/31 00:16:50;;;;;;;1.13;0.75;;;;;;;12.93;51.04;96852.75;4901452;28;20297;-78
2022/05/31 00:19:17;;;;;;;1.45;1.15;;;;;;;12.91;51.02;96852.25;4926341;28;20194;-78
2022/05/31 00:21:48;;;;;;;2.05;0.95;;;;;;;12.89;50.96;96858.81;4890914;28;20266;-78
2022/05/31 00:24:15;;;;;;;1.77;0.98;;;;;;;12.79;51.34;96851.78;4906741;28;20254;-78
2022/05/31 00:26:41;;;;;;;2.92;1.23;;;;;;;12.80;50.84;96853.34;4910892;28;20198;-78
2022/05/31 00:29:08;;;;;;;1.90;1.42;;;;;;;12.85;50.99;96853.34;4886596;28;20335;-78
2022/05/31 00:31:34;;;;;;;2.70;1.10;;;;;;;12.79;51.11;96851.00;4896725;28;20191;-77
2022/05/31 00:34:00;;;;;;;2.03;1.27;;;;;;;12.72;51.18;96844.22;4896575;28;20286;-77
2022/05/31 00:36:25;;;;;;;1.00;0.82;;;;;;;12.72;51.25;96846.06;4911847;28;20257;-77
2022/05/31 00:38:50;;;;;;;2.15;1.25;;;;;;;12.68;51.52;96845.00;4905968;28;20641;-77
2022/05/31 00:41:23;;;;;;;2.42;1.05;;;;;;;12.59;51.48;96857.81;4905771;28;20247;-77
2022/05/31 00:43:59;;;;;;;1.65;1.25;;;;;;;12.43;51.67;96845.84;4892787;28;20657;-78
2022/05/31 00:46:28;;;;;;;2.58;1.23;;;;;;;12.52;51.41;96850.25;4905066;28;20190;-77
2022/05/31 00:48:57;;;;;;;2.00;1.20;;;;;;;12.52;51.54;96845.03;4896435;28;20193;-77
2022/05/31 00:51:24;;;;;;;1.35;1.10;;;;;;;12.47;51.69;96850.28;4912566;28;20648;-78
2022/05/31 00:53:53;;;;;;;1.35;1.25;;;;;;;12.47;51.82;96852.88;4895970;28;20202;-78
2022/05/31 00:56:22;;;;;;;1.00;0.80;;;;;;;12.44;51.52;96848.22;4893037;28;20301;-78
2022/05/31 00:58:53;;;;;;;1.70;1.20;;;;;;;12.36;52.29;96852.13;4907831;28;20814;-78
2022/05/31 01:01:18;;;;;;;2.72;1.20;;;;;;;12.39;52.41;96845.59;4909494;28;20197;-78
2022/05/31 01:03:44;;;;;;;3.75;1.30;;;;;;;12.24;52.73;96841.19;4890940;28;20314;-78
2022/05/31 01:06:13;;;;;;;1.35;1.25;;;;;;;12.12;53.06;96848.50;4912464;28;20174;-78
2022/05/31 01:08:45;;;;;;;2.10;1.40;;;;;;;12.02;53.56;96846.66;4881340;28;20291;-78
2022/05/31 01:11:13;;;;;;;1.35;1.08;;;;;;;12.06;53.49;96846.94;4911788;28;20666;-78
2022/05/31 01:13:39;;;;;;;2.65;1.48;;;;;;;12.08;53.48;96850.06;4895913;28;20151;-78
2022/05/31 01:16:08;;;;;;;1.67;1.40;;;;;;;11.98;53.60;96843.03;4895816;28;20167;-78
2022/05/31 01:18:33;;;;;;;2.47;1.20;;;;;;;11.95;53.81;96849.53;4893300;28;20566;-78
2022/05/31 01:21:02;;;;;;;1.67;1.20;;;;;;;11.93;54.35;96845.63;4912111;28;20192;-77
2022/05/31 01:23:30;;;;;;;1.98;1.35;;;;;;;11.87;53.26;96844.03;4904996;28;20314;-77
2022/05/31 01:26:30;;;;;;;2.70;1.50;;;;;;;11.76;54.13;96841.41;4891853;28;20206;-77
2022/05/31 01:29:21;;;;;;;1.23;1.10;;;;;;;11.80;53.97;96842.44;4909377;28;20214;-77
2022/05/31 01:32:00;;;;;;;1.80;1.40;;;;;;;11.81;53.98;96835.44;4895954;28;20714;-78
2022/05/31 01:34:36;;;;;;;2.28;1.60;;;;;;;11.88;53.45;96838.56;4890913;28;20187;-78
2022/05/31 01:37:02;;;;;;;3.38;1.42;;;;;;;11.84;53.80;96834.09;4892547;28;20711;-77
2022/05/31 01:39:47;;;;;;;2.55;1.33;;;;;;;11.69;53.98;96829.69;4886779;28;20157;-78
2022/05/31 01:42:35;;;;;;;2.63;1.20;;;;;;;11.50;54.30;96834.59;4885675;28;20205;-78
2022/05/31 01:45:13;;;;;;;2.33;1.60;;;;;;;11.54;54.17;96827.81;4904310;28;20671;-78
2022/05/31 01:47:38;;;;;;;2.00;1.63;;;;;;;11.71;54.13;96828.38;4878631;28;20616;-78
2022/05/31 01:50:06;;;;;;;2.95;1.40;;;;;;;11.70;53.92;96833.84;4888199;28;20128;-77
2022/05/31 01:52:32;;;;;;;2.10;1.27;;;;;;;11.73;53.95;96825.50;4876309;28;20186;-77
2022/05/31 01:54:58;;;;;;;1.73;1.10;;;;;;;11.74;54.18;96827.06;4906005;28;20194;-78
2022/05/31 01:57:24;;;;;;;2.20;1.50;;;;;;;11.73;53.68;96823.66;4910729;28;20281;-78
2022/05/31 01:59:56;;;;;;;3.55;1.40;;;;;;;11.70;53.84;96818.97;4889501;28;20201;-78
2022/05/31 02:02:22;;;;;;;4.13;1.27;;;;;;;11.79;54.31;96817.41;4912055;28;20159;-78
2022/05/31 02:04:48;;;;;;;1.80;1.20;;;;;;;11.71;54.53;96815.31;4888175;28;20344;-78
2022/05/31 02:07:22;;;;;;;2.83;1.20;;;;;;;11.45;55.03;96822.34;4910327;28;20193;-78
2022/05/31 02:09:50;;;;;;;3.33;1.57;;;;;;;11.49;55.19;96814.78;4911474;28;20213;-78
2022/05/31 02:12:17;;;;;;;1.75;1.23;;;;;;;11.55;54.90;96824.97;4910099;28;20217;-78
2022/05/31 02:14:42;;;;;;;1.52;1.25;;;;;;;11.54;55.03;96815.56;4878414;28;20241;-78
2022/05/31 02:17:08;;;;;;;2.50;1.48;;;;;;;11.55;54.57;96818.94;4910580;28;20248;-77
2022/05/31 02:19:34;;;;;;;2.35;1.73;;;;;;;11.47;54.79;96824.69;4893700;28;20711;-77
2022/05/31 02:22:07;;;;;;;1.92;1.40;;;;;;;11.38;54.95;96819.97;4904727;28;20221;-78
2022/05/31 02:24:33;;;;;;;1.67;1.38;;;;;;;11.44;54.66;96823.38;4878103;28;20376;-77
2022/05/31 02:26:59;;;;;;;2.53;1.50;;;;;;;11.32;55.33;96822.81;4911025;28;20118;-77
2022/05/31 02:29:34;;;;;;;3.03;2.15;;;;;;;11.22;55.32;96820.97;4885025;28;20250;-78
2022/05/31 02:32:02;;;;;;;3.45;1.67;;;;;;;11.34;55.03;96818.91;4891709;28;20259;-78
2022/05/31 02:34:31;;;;;;;4.35;1.40;;;;;;;11.35;55.45;96817.09;4875679;28;20195;-78
2022/05/31 02:36:56;;;;;;;2.65;1.38;;;;;;;11.40;55.17;96819.72;4895880;28;20270;-77
2022/05/31 02:39:22;;;;;;;4.18;1.63;;;;;;;11.37;55.02;96821.00;4897847;28;20356;-78
2022/05/31 02:41:48;;;;;;;2.53;1.60;;;;;;;11.25;55.48;96813.41;4908734;28;20226;-77
2022/05/31 02:44:14;;;;;;;1.80;1.10;;;;;;;11.29;55.34;96815.53;4892894;28;20207;-78
2022/05/31 02:46:40;;;;;;;2.30;1.38;;;;;;;11.36;55.13;96811.63;4909725;28;20676;-78
2022/05/31 02:49:06;;;;;;;1.98;1.42;;;;;;;11.23;55.37;96812.13;4892333;28;20288;-78
2022/05/31 02:51:36;;;;;;;3.88;1.65;;;;;;;11.10;55.67;96802.19;4879423;28;20292;-77
2022/05/31 02:54:03;;;;;;;2.45;1.50;;;;;;;11.06;56.46;96799.31;4892149;28;20641;-77
2022/05/31 02:56:28;;;;;;;1.80;1.50;;;;;;;10.98;56.05;96802.41;4908718;28;20736;-78
2022/05/31 02:58:54;;;;;;;1.80;1.35;;;;;;;10.95;56.24;96798.50;4883350;28;20268;-78
2022/05/31 03:01:28;;;;;;;1.90;1.45;;;;;;;10.96;56.02;96796.66;4910397;28;20641;-78
2022/05/31 03:03:53;;;;;;;2.13;1.30;;;;;;;11.17;55.88;96800.09;4874560;28;20699;-78
2022/05/31 03:06:21;;;;;;;2.20;1.73;;;;;;;11.18;55.51;96792.03;4908876;28;20363;-78
2022/05/31 03:08:47;;;;;;;2.72;1.70;;;;;;;11.35;55.82;96801.47;4877757;28;20201;-78
2022/05/31 03:11:19;;;;;;;2.17;1.50;;;;;;;11.32;55.40;96797.53;4875715;28;20297;-77
2022/05/31 03:13:46;;;;;;;3.72;1.60;;;;;;;11.41;55.06;96790.78;4885397;28;20673;-77
2022/05/31 03:16:12;;;;;;;2.53;1.90;;;;;;;11.40;55.25;96791.06;4906135;28;20202;-77
2022/05/31 03:18:45;;;;;;;1.88;1.42;;;;;;;11.18;55.67;96786.06;4891342;28;20247;-77
2022/05/31 03:21:15;;;;;;;2.25;1.60;;;;;;;11.10;55.86;96789.94;4910149;28;20274;-77
2022/05/31 03:23:49;;;;;;;2.97;1.55;;;;;;;11.03;56.00;96779.75;4877309;28;20194;-78
2022/05/31 03:26:17;;;;;;;2.90;1.52;;;;;;;11.14;55.56;96785.78;4907156;28;20209;-78
2022/05/31 03:28:42;;;;;;;2.92;1.50;;;;;;;11.22;55.46;96780.09;4886442;28;20289;-78
2022/05/31 03:31:09;;;;;;;2.22;1.48;;;;;;;11.19;55.73;96774.56;4888178;28;20677;-78
2022/05/31 03:33:34;;;;;;;3.58;1.60;;;;;;;11.24;56.13;96774.59;4880807;28;20621;-78
2022/05/31 03:36:00;;;;;;;4.72;1.90;;;;;;;11.18;55.53;96781.63;4910196;28;20197;-77
2022/05/31 03:38:25;;;;;;;2.70;1.60;;;;;;;11.17;55.82;96784.47;4890900;28;20241;-77
2022/05/31 03:40:57;;;;;;;2.95;1.75;;;;;;;11.18;56.15;96770.41;4886850;28;20278;-78
2022/05/31 03:43:28;;;;;;;4.20;1.77;;;;;;;11.02;56.44;96770.38;4874970;28;20195;-77
2022/05/31 03:45:54;;;;;;;2.50;1.92;;;;;;;11.06;56.62;96771.44;4892492;28;20202;-77
2022/05/31 03:48:19;;;;;;;3.15;1.80;;;;;;;11.03;56.26;96765.94;4899051;28;20207;-77
2022/05/31 03:50:45;;;;;;;2.13;1.55;;;;;;;10.95;57.10;96764.63;4892455;28;20274;-77
2022/05/31 03:53:13;;;;;;;1.70;1.30;;;;;;;10.89;56.86;96757.84;4903845;28;20179;-78
2022/05/31 03:55:41;;;;;;;2.92;1.73;;;;;;;10.99;56.54;96762.31;4897583;28;20253;-78
2022/05/31 03:58:06;;;;;;;2.80;1.65;;;;;;;11.06;56.57;96766.22;4899901;28;20167;-78
2022/05/31 04:00:32;;;;;;;3.55;1.70;;;;;;;11.09;56.51;96764.13;4894588;28;20216;-78
2022/05/31 04:02:58;;;;;;;3.03;1.90;;;;;;;11.18;56.06;96770.41;4895380;28;20190;-78
2022/05/31 04:05:23;;;;;;;2.30;1.40;;;;;;;11.25;56.21;96771.72;4910667;28;20189;-78
2022/05/31 04:07:53;;;;;;;3.85;1.77;;;;;;;11.21;56.03;96768.06;4910467;28;20382;-78
2022/05/31 04:10:18;;;;;;;1.95;1.50;;;;;;;11.32;55.85;96774.09;4895316;28;20684;-78
2022/05/31 04:12:44;;;;;;;3.38;1.42;;;;;;;11.36;55.72;96767.31;4910756;28;20285;-78
2022/05/31 04:15:09;;;;;;;5.40;1.75;;;;;;;11.42;55.47;96770.72;4928473;28;20280;-78
2022/05/31 04:17:35;;;;;;;2.33;1.80;;;;;;;11.46;55.58;96776.19;4910360;28;20296;-78
2022/05/31 04:20:00;;;;;;;2.22;1.40;;;;;;;11.51;55.33;96765.75;4911286;28;20609;-78
2022/05/31 04:22:25;;;;;;;2.80;1.40;;;;;;;11.55;55.79;96764.19;4913515;28;20294;-78
2022/05/31 04:24:54;;;;;;;2.67;1.55;;;;;;;11.66;55.09;96760.56;4903143;28;20214;-78
2022/05/31 04:27:20;;;;;;;1.95;1.58;;;;;;;11.73;55.02;96766.28;4878774;28;20186;-78
2022/05/31 04:29:45;;;;;;;2.00;1.42;;;;;;;11.77;54.78;96759.53;4899441;28;20254;-78
2022/05/31 04:32:15;;;;;;;2.58;1.55;;;;;;;11.65;54.96;96763.41;4892807;28;20487;-78
2022/05/31 04:34:41;;;;;;;3.05;1.60;;;;;;;11.76;55.11;96760.56;4894648;28;20278;-78
2022/05/31 04:37:07;;;;;;;2.80;1.55;;;;;;;11.87;54.75;96757.94;4893799;28;20145;-78
2022/05/31 04:39:32;;;;;;;1.75;1.42;;;;;;;11.92;54.19;96763.19;4874289;28;20229;-78
2022/05/31 04:41:58;;;;;;;1.75;1.35;;;;;;;11.90;54.66;96760.03;4929293;28;20675;-78
2022/05/31 04:44:23;;;;;;;2.33;1.60;;;;;;;11.84;55.17;96759.25;4916795;28;20324;-78
2022/05/31 04:46:49;;;;;;;2.60;1.52;;;;;;;11.91;54.81;96759.00;4911928;28;20212;-78
2022/05/31 04:49:15;;;;;;;1.52;1.30;;;;;;;11.85;55.03;96757.44;4911815;28;20265;-77
2022/05/31 04:51:43;;;;;;;2.58;1.50;;;;;;;11.96;55.03;96759.78;4881002;28;20710;-77
2022/05/31 04:54:08;;;;;;;2.58;1.60;;;;;;;12.02;54.78;96768.38;4902427;28;20198;-77
2022/05/31 04:56:34;;;;;;;2.35;1.40;;;;;;;12.11;54.09;96771.25;4878238;28;20198;-78
2022/05/31 04:59:00;;;;;;;2.28;1.20;;;;;;;12.31;54.04;96770.44;4901736;28;20597;-78
2022/05/31 05:01:26;;;;;;;4.57;1.35;;;;;;;12.45;54.19;96776.66;4906891;28;20628;-78
2022/05/31 05:03:53;;;;;;;2.47;1.30;;;;;;;12.44;53.58;96769.88;4908485;28;20655;-78
2022/05/31 05:06:19;;;;;;;1.50;1.40;;;;;;;12.49;54.11;96776.91;4905321;28;20367;-78
2022/05/31 05:08:45;;;;;;;2.17;1.50;;;;;;;12.48;54.02;96770.91;4907779;28;20297;-78
2022/05/31 05:11:16;;;;;;;2.08;1.60;;;;;;;12.29;54.47;96767.31;4918227;28;20562;-78
2022/05/31 05:13:43;;;;;;;3.55;1.55;;;;;;;12.38;54.30;96760.47;4917592;28;20214;-78
2022/05/31 05:16:09;;;;;;;1.75;1.30;;;;;;;12.48;54.31;96770.13;4894968;28;20274;-78
2022/05/31 05:18:35;;;;;;;1.33;1.20;;;;;;;12.70;54.17;96767.19;4893244;28;20715;-77
2022/05/31 05:21:03;;;;;;;2.92;1.63;;;;;;;12.85;54.34;96761.88;4912421;28;20256;-77
2022/05/31 05:23:28;;;;;;;2.10;1.50;;;;;;;13.01;53.52;96767.81;4912758;28;20412;-77
2022/05/31 05:25:55;;;;;;;2.58;1.75;;;;;;;13.10;53.06;96776.63;4889603;28;20123;-77
2022/05/31 05:31:05;;;;;;;2.15;1.33;;;;;;;13.10;52.21;96762.78;4913038;28;20688;-76
2022/05/31 05:33:31;;;;;;;1.77;1.25;;;;;;;13.08;52.70;96775.34;4892437;28;20198;-77
2022/05/31 05:35:57;;;;;;;1.80;1.45;;;;;;;13.18;52.43;96779.72;4886888;28;20630;-77
2022/05/31 05:38:22;;;;;;;2.45;1.15;;;;;;;13.22;52.08;96783.38;4891375;28;20172;-76
2022/05/31 05:40:48;;;;;;;1.83;1.30;;;;;;;13.32;52.38;96785.19;4884266;28;20519;-77
2022/05/31 05:43:13;;;;;;;2.63;1.42;;;;;;;13.38;52.10;96791.94;4924238;28;20686;-76
2022/05/31 05:45:39;;;;;;;2.33;1.15;;;;;;;13.60;52.13;96783.69;4886545;28;20703;-77
2022/05/31 05:48:05;;;;;;;2.20;1.73;;;;;;;13.51;51.83;96780.88;4908167;28;20191;-76
2022/05/31 05:50:33;;;;;;;2.50;1.50;;;;;;;13.52;51.67;96782.44;4912141;28;20636;-76
2022/05/31 05:53:04;;;;;;;2.30;1.10;;;;;;;13.59;51.57;96782.91;4898132;28;20267;-76
2022/05/31 05:55:30;;;;;;;2.67;1.30;;;;;;;13.94;51.67;96785.50;4904641;28;20205;-77
2022/05/31 05:57:56;;;;;;;2.22;1.30;;;;;;;13.99;51.64;96788.84;4911056;28;20244;-77
2022/05/31 06:00:22;;;;;;;3.33;1.27;;;;;;;14.10;50.70;96796.63;4927503;28;20285;-77
2022/05/31 06:02:51;;;;;;;2.50;1.40;;;;;;;14.26;50.11;96789.38;4893988;28;20648;-76
2022/05/31 06:05:28;;;;;;;1.50;1.10;;;;;;;14.36;49.92;96791.91;4907198;28;20171;-77
2022/05/31 06:08:20;;;;;;;4.35;1.40;;;;;;;14.39;49.69;96788.72;4905064;28;20739;-77
2022/05/31 06:11:08;;;;;;;1.65;0.93;;;;;;;14.49;49.38;96785.22;4898590;28;20152;-77
2022/05/31 06:13:36;;;;;;;1.85;1.38;;;;;;;14.59;49.69;96793.78;4911073;28;20221;-77
2022/05/31 06:16:03;;;;;;;1.83;1.20;;;;;;;14.79;49.90;96786.75;4910143;28;20159;-77
2022/05/31 06:18:32;;;;;;;2.47;1.33;;;;;;;14.84;48.87;96793.75;4910639;28;20263;-77
2022/05/31 06:21:01;;;;;;;1.60;1.40;;;;;;;15.07;49.08;96786.94;4894688;28;20327;-77
2022/05/31 06:23:27;;;;;;;1.98;1.15;;;;;;;15.26;48.29;96789.56;4874179;28;20254;-77
2022/05/31 06:25:52;;;;;;;2.55;1.17;;;;;;;15.35;48.09;96785.22;4889302;28;20595;-77
2022/05/31 06:28:17;;;;;;;2.75;1.17;;;;;;;15.62;48.62;96783.78;4892422;28;20180;-77
2022/05/31 06:30:43;;;;;;;1.75;1.00;;;;;;;15.66;47.85;96779.53;4923987;28;20792;-77
2022/05/31 06:33:08;;;;;;;1.40;0.98;;;;;;;15.49;47.55;96783.47;4929015;28;20667;-77
2022/05/31 06:35:34;;;;;;;2.47;1.23;;;;;;;15.73;47.30;96774.72;4894179;28;20664;-78
2022/05/31 06:38:00;;;;;;;1.67;1.08;;;;;;;15.82;47.55;96772.22;4892807;28;20651;-77
2022/05/31 06:40:25;;;;;;;2.22;1.25;;;;;;;16.13;46.93;96780.38;4901460;28;20646;-76
2022/05/31 06:42:50;;;;;;;1.52;1.00;;;;;;;16.43;46.28;96779.03;4897138;28;20195;-76
2022/05/31 06:45:16;;;;;;;2.33;1.00;;;;;;;16.88;45.47;96778.47;4884597;28;20085;-76
2022/05/31 06:47:41;;;;;;;2.00;1.13;;;;;;;17.13;44.79;96782.38;4901407;28;20231;-77
2022/05/31 06:50:07;;;;;;;2.05;1.15;;;;;;;16.99;44.51;96774.53;4901161;28;20630;-77
2022/05/31 06:58:01;;;;;;;1.55;1.00;;;;;;;17.79;44.16;96782.75;4886663;28;20277;-77
2022/05/31 07:00:26;;;;;;;1.30;1.05;;;;;;;18.08;42.85;96775.50;4863703;28;20205;-77
2022/05/31 07:02:54;;;;;;;2.53;0.85;;;;;;;18.24;42.41;96774.00;4905375;28;20199;-77
2022/05/31 07:05:20;;;;;;;2.58;1.00;;;;;;;18.64;41.35;96771.34;4912866;28;20654;-76
2022/05/31 07:07:45;;;;;;;1.02;0.95;;;;;;;18.98;40.52;96772.53;4884293;28;20202;-77
2022/05/31 07:10:11;;;;;;;1.75;1.00;;;;;;;18.98;41.62;96769.91;4898014;28;20602;-76
2022/05/31 07:12:37;;;;;;;1.92;0.75;;;;;;;18.99;41.35;96779.38;4891369;28;20197;-77
2022/05/31 07:15:04;;;;;;;0.85;0.82;;;;;;;18.80;41.65;96784.13;4884009;28;20194;-76
2022/05/31 07:17:29;;;;;;;0.90;0.80;;;;;;;18.89;41.11;96798.16;4882313;28;20171;-76
2022/05/31 07:19:55;;;;;;;2.00;0.73;;;;;;;18.78;42.06;96792.34;4900917;28;20561;-77
2022/05/31 07:22:20;;;;;;;1.80;0.90;;;;;;;18.34;42.02;96786.16;4901468;28;20318;-76
2022/05/31 07:24:45;;;;;;;1.40;0.80;;;;;;;18.37;42.62;96782.91;4889974;28;20197;-77
2022/05/31 07:27:11;;;;;;;2.80;0.90;;;;;;;18.63;42.33;96779.59;4917066;28;20175;-77
2022/05/31 07:29:36;;;;;;;1.70;0.90;;;;;;;18.71;41.53;96776.97;4906369;28;20210;-77
2022/05/31 07:32:02;;;;;;;1.50;0.93;;;;;;;19.13;41.82;96771.31;4897848;28;20282;-77
2022/05/31 07:34:27;;;;;;;1.85;1.00;;;;;;;19.51;40.66;96773.34;4893225;28;20202;-76
2022/05/31 07:36:53;;;;;;;2.13;0.90;;;;;;;19.54;40.63;96777.22;4903399;28;20298;-77
2022/05/31 07:39:20;;;;;;;1.27;0.98;;;;;;;19.92;39.18;96774.72;4882057;28;20709;-77
2022/05/31 07:41:46;;;;;;;1.45;0.95;;;;;;;19.86;40.41;96770.69;4876873;28;20178;-77
2022/05/31 07:44:12;;;;;;;1.30;1.00;;;;;;;20.04;39.26;96771.41;4891034;28;20099;-77
2022/05/31 07:46:38;;;;;;;1.48;0.80;;;;;;;20.40;40.15;96784.19;4870595;28;20167;-77
2022/05/31 07:49:04;;;;;;;1.67;0.90;;;;;;;20.45;39.07;96785.13;4908668;28;20201;-77
2022/05/31 07:51:29;;;;;;;3.38;0.98;;;;;;;20.62;39.50;96787.72;4909604;28;20308;-77
2022/05/31 07:53:55;;;;;;;0.95;0.90;;;;;;;20.88;38.79;96781.50;4897002;28;20136;-78
2022/05/31 07:56:21;;;;;;;0.77;0.77;;;;;;;21.12;38.52;96784.28;4901082;28;20125;-78
2022/05/31 07:58:47;;;;;;;1.27;0.90;;;;;;;21.33;38.87;96783.50;4903080;28;20233;-77
2022/05/31 08:01:15;;;;;;;1.88;1.30;;;;;;;21.08;37.61;96778.09;4902351;28;20282;-77
2022/05/31 08:03:41;;;;;;;2.22;0.88;;;;;;;21.00;38.00;96784.22;4895280;28;20288;-77
2022/05/31 08:06:18;;;;;;;2.00;0.80;;;;;;;20.70;39.54;96796.69;4892461;28;20218;-77
2022/05/31 08:08:43;;;;;;;1.67;1.17;;;;;;;20.76;38.30;96787.47;4909272;28;20254;-78
2022/05/31 08:11:18;;;;;;;1.20;0.82;;;;;;;20.81;37.70;96789.94;4921081;28;20281;-77
2022/05/31 08:13:45;;;;;;;1.45;1.20;;;;;;;20.78;37.95;96787.94;4909424;28;20354;-77
2022/05/31 08:16:12;;;;;;;1.10;1.00;;;;;;;20.86;37.07;96789.00;4896606;28;20194;-77
2022/05/31 08:18:39;;;;;;;2.70;1.08;;;;;;;21.19;36.50;96783.00;4913638;28;20175;-77
2022/05/31 08:21:07;;;;;;;1.48;0.95;;;;;;;21.22;37.82;96775.19;4913095;28;20730;-77
2022/05/31 08:23:33;;;;;;;1.15;0.82;;;;;;;21.49;36.97;96787.16;4912427;28;20198;-77
2022/05/31 08:25:59;;;;;;;1.75;1.15;;;;;;;21.45;37.14;96778.28;4880152;28;20281;-77
2022/05/31 08:28:24;;;;;;;1.13;1.00;;;;;;;21.22;36.27;96787.66;4912076;28;20320;-77
2022/05/31 08:30:53;;;;;;;0.90;0.90;;;;;;;21.14;37.42;96776.78;4909567;28;20182;-77
2022/05/31 08:33:18;;;;;;;2.03;1.05;;;;;;;21.80;35.94;96771.94;4896956;28;20339;-77
2022/05/31 08:35:43;;;;;;;2.40;1.10;;;;;;;22.03;35.75;96773.06;4913813;28;20203;-78
2022/05/31 08:38:09;;;;;;;1.08;0.73;;;;;;;22.34;35.80;96768.41;4879051;28;20222;-78
2022/05/31 08:40:41;;;;;;;1.45;0.90;;;;;;;22.72;35.03;96767.28;4888157;28;20294;-78
2022/05/31 08:43:07;;;;;;;1.83;0.90;;;;;;;23.04;34.81;96759.50;4897393;28;20111;-78
2022/05/31 08:45:32;;;;;;;2.08;0.90;;;;;;;23.07;35.75;96759.63;4871545;28;20172;-77
2022/05/31 08:48:30;;;;;;;1.85;0.90;;;;;;;22.86;33.91;96749.13;4893674;28;20172;-76
2022/05/31 08:56:56;;;;;;;0.70;0.70;;;;;;;23.22;34.80;96744.88;4919985;28;20275;-77
2022/05/31 08:56:58;;;;;;;1.58;1.00;;;;;;;23.61;33.52;96739.81;4914389;28;20640;-77
2022/05/31 08:59:45;;;;;;;2.83;1.35;;;;;;;23.34;33.56;96746.72;4874061;28;20708;-77
2022/05/31 09:02:16;;;;;;;0.70;0.70;;;;;;;23.51;32.44;96749.06;4894149;28;20199;-77
2022/05/31 09:04:45;;;;;;;0.85;0.77;;;;;;;24.05;33.26;96737.16;4905973;28;20221;-77
2022/05/31 09:07:24;;;;;;;2.28;0.90;;;;;;;24.65;33.09;96752.25;4911664;28;20226;-77
2022/05/31 09:09:54;;;;;;;1.10;1.00;;;;;;;24.91;30.78;96750.91;4912678;28;20253;-77
2022/05/31 09:12:32;;;;;;;1.85;0.95;;;;;;;25.27;33.91;96744.44;4911537;28;20383;-77
2022/05/31 09:15:03;;;;;;;1.63;0.73;;;;;;;25.54;28.79;96752.56;4895348;28;20311;-75
2022/05/31 09:17:38;;;;;;;1.55;0.93;;;;;;;25.68;28.51;96750.13;4911464;28;20277;-76
2022/05/31 09:20:17;;;;;;;1.65;0.90;;;;;;;25.55;30.54;96744.22;4894992;28;20367;-76
2022/05/31 09:22:45;;;;;;;1.60;1.15;;;;;;;26.18;28.81;96742.25;4910004;28;20393;-77
2022/05/31 09:25:14;;;;;;;1.23;0.75;;;;;;;26.31;28.08;96748.16;4894615;28;20189;-75
2022/05/31 09:27:45;;;;;;;2.13;0.90;;;;;;;26.37;27.47;96740.63;4910544;28;20391;-76
2022/05/31 09:30:33;;;;;;;1.27;0.93;;;;;;;26.67;25.91;96744.16;4889994;28;20707;-76
2022/05/31 09:33:15;;;;;;;1.23;0.73;;;;;;;27.29;24.49;96740.38;4918567;28;20355;-76
2022/05/31 09:36:16;;;;;;;1.65;1.10;;;;;;;27.01;24.41;96746.13;4910548;28;20277;-75
2022/05/31 09:38:41;;;;;;;0.82;0.80;;;;;;;27.16;24.11;96736.38;4910549;28;20167;-75
2022/05/31 09:41:22;;;;;;;1.30;0.80;;;;;;;27.02;21.11;96734.28;4887023;28;20364;-75
2022/05/31 09:43:50;;;;;;;0.80;0.63;;;;;;;27.43;21.52;96737.09;4928450;28;20734;-75
2022/05/31 09:46:34;;;;;;;1.00;0.80;;;;;;;27.32;21.79;96734.31;4909724;28;20303;-75
2022/05/31 09:49:13;;;;;;;1.35;1.00;;;;;;;27.43;19.80;96735.16;4927684;28;20281;-76
2022/05/31 09:51:41;;;;;;;1.00;0.90;;;;;;;26.99;21.53;96738.47;4910150;28;20164;-75
2022/05/31 09:57:06;;;;;;;1.02;0.90;;;;;;;26.13;21.75;96738.00;4908870;28;20352;-75
2022/05/31 09:59:47;;;;;;;1.02;0.85;;;;;;;26.44;22.30;96743.41;4909762;28;20314;-77
2022/05/31 10:02:35;;;;;;;1.58;0.60;;;;;;;26.34;22.29;96742.88;4910890;28;20202;-78
2022/05/31 10:05:20;;;;;;;0.73;0.70;;;;;;;26.77;21.69;96741.97;4894108;28;20257;-76
2022/05/31 10:07:46;;;;;;;1.83;1.30;;;;;;;27.22;21.40;96738.34;4907142;28;20155;-76
2022/05/31 10:10:18;;;;;;;1.95;0.93;;;;;;;26.87;20.69;96736.78;4891041;28;20203;-76
2022/05/31 10:12:55;;;;;;;0.93;0.80;;;;;;;27.10;23.51;96731.34;4890731;28;20402;-76
2022/05/31 10:15:43;;;;;;;1.45;1.05;;;;;;;27.48;21.29;96731.41;4890368;28;20186;-75
2022/05/31 10:18:12;;;;;;;1.67;0.70;;;;;;;27.65;21.11;96728.13;4874858;28;20709;-76
2022/05/31 10:20:37;;;;;;;1.63;0.80;;;;;;;28.10;19.58;96714.78;4875068;28;20258;-76
2022/05/31 10:23:06;;;;;;;1.27;0.70;;;;;;;28.26;19.71;96719.91;4890734;28;20167;-76
2022/05/31 10:25:39;;;;;;;1.05;0.88;;;;;;;28.20;21.07;96724.06;4890066;28;20581;-75
2022/05/31 10:28:31;;;;;;;1.25;0.80;;;;;;;27.89;19.88;96723.38;4892319;28;20180;-76
2022/05/31 10:31:19;;;;;;;1.35;0.90;;;;;;;28.32;19.61;96728.34;4907948;28;20151;-76
2022/05/31 10:33:55;;;;;;;1.52;0.63;;;;;;;28.45;21.15;96724.22;4927182;28;20292;-75
2022/05/31 10:36:23;;;;;;;0.98;0.85;;;;;;;28.53;18.39;96725.81;4878784;28;20287;-77
2022/05/31 10:38:49;;;;;;;0.98;0.80;;;;;;;28.43;17.75;96723.84;4909598;28;20284;-75
2022/05/31 10:41:30;;;;;;;1.75;1.10;;;;;;;28.33;18.87;96719.94;4902172;28;20250;-75
2022/05/31 10:44:28;;;;;;;2.83;1.10;;;;;;;28.68;19.79;96732.03;4906177;28;20376;-76
2022/05/31 10:46:58;;;;;;;1.90;1.00;;;;;;;28.72;18.96;96726.69;4909716;28;20226;-75
2022/05/31 10:49:24;;;;;;;1.50;0.85;;;;;;;29.16;19.91;96723.09;4909109;28;20532;-76
2022/05/31 10:52:19;;;;;;;1.08;0.82;;;;;;;28.97;17.05;96731.44;4904432;28;20250;-74
2022/05/31 10:55:07;;;;;;;1.08;0.90;;;;;;;28.79;17.83;96734.00;4904168;28;20253;-76
2022/05/31 10:57:44;;;;;;;1.40;0.90;;;;;;;28.61;20.84;96721.28;4919985;28;20686;-76
2022/05/31 11:00:21;;;;;;;0.93;0.82;;;;;;;28.32;19.95;96723.00;4927064;28;20163;-75
2022/05/31 11:02:59;;;;;;;2.10;1.20;;;;;;;28.07;20.32;96733.50;4927154;28;20359;-76
2022/05/31 11:06:03;;;;;;;1.13;0.80;;;;;;;27.44;20.41;96733.28;4919071;28;20250;-76
2022/05/31 11:11:59;;;;;;;0.85;0.73;;;;;;;27.14;18.94;96743.97;4836221;28;20222;-75
2022/05/31 11:14:37;;;;;;;0.80;0.65;;;;;;;26.50;20.21;96749.97;4908763;28;20274;-75
2022/05/31 11:17:15;;;;;;;1.02;0.90;;;;;;;26.26;21.27;96746.56;4900056;28;20656;-75
2022/05/31 11:20:02;;;;;;;0.90;0.70;;;;;;;26.33;20.12;96741.34;4887353;28;20284;-75
2022/05/31 11:22:56;;;;;;;1.17;0.70;;;;;;;26.28;21.63;96744.31;4892953;28;20301;-76
2022/05/31 11:25:37;;;;;;;1.00;0.80;;;;;;;26.51;22.27;96746.94;4886018;28;20310;-76
2022/05/31 11:28:19;;;;;;;0.85;0.70;;;;;;;26.50;22.51;96758.75;4904621;28;20214;-76
2022/05/31 11:31:04;;;;;;;0.98;0.88;;;;;;;26.48;20.72;96742.31;4900229;28;20286;-75
2022/05/31 11:33:32;;;;;;;;;;;;;;;26.34;20.01;96753.56;4907765;28;20251;-76
2022/05/31 11:36:09;;;;;;;1.35;0.90;;;;;;;26.11;21.74;96758.13;4907387;28;20572;-75
2022/05/31 11:38:47;;;;;;;1.48;0.80;;;;;;;25.85;22.84;96754.25;4893599;28;20739;-77
2022/05/31 11:41:21;;;;;;;1.95;0.73;;;;;;;25.81;21.79;96761.44;4904055;28;20625;-77
2022/05/31 11:44:19;;;;;;;2.25;0.82;;;;;;;25.50;24.38;96755.16;4905206;28;20829;-75
2022/05/31 11:46:55;;;;;;;0.82;0.80;;;;;;;25.54;22.28;96755.22;4925789;28;20373;-75
2022/05/31 11:49:29;;;;;;;2.00;0.80;;;;;;;25.57;21.98;96765.19;4930798;28;20633;-78
2022/05/31 11:52:26;;;;;;;1.25;0.70;;;;;;;25.31;22.96;96747.94;4909207;28;20214;-75
2022/05/31 11:58:06;;;;;;;0.68;0.60;;;;;;;25.55;23.88;96759.41;4923236;28;20649;-76
2022/05/31 12:01:02;;;;;;;0.80;0.80;;;;;;;25.07;25.47;96751.63;4929159;28;20167;-76
2022/05/31 12:03:46;;;;;;;0.60;0.60;;;;;;;25.32;22.62;96749.47;4903377;28;20639;-75
2022/05/31 12:06:28;;;;;;;1.50;1.40;;;;;;;25.40;24.01;96750.41;4919689;28;20159;-76
2022/05/31 12:09:00;;;;;;;1.17;0.70;;;;;;;25.46;23.71;96758.88;4909278;28;20207;-76
2022/05/31 12:11:41;;;;;;;1.02;0.70;;;;;;;25.55;25.62;96746.88;4908658;28;20304;-77